createdAt,value
2022-09-21T00:01:39.813Z,81.73
2022-09-21T00:04:08.078Z,81.75
2022-09-21T00:06:38.121Z,81.69
2022-09-21T00:09:08.380Z,81.31
2022-09-21T00:11:37.206Z,81.24
2022-09-21T00:14:13.286Z,81.18
2022-09-21T00:16:43.475Z,80.91
2022-09-21T00:19:12.243Z,81.02
2022-09-21T00:21:40.493Z,81.03
2022-09-21T00:24:08.922Z,80.95
2022-09-21T00:26:37.275Z,81.12
2022-09-21T00:29:05.812Z,80.99
2022-09-21T00:31:35.431Z,81.11
2022-09-21T00:34:03.883Z,81.12
2022-09-21T00:36:32.114Z,81.40
2022-09-21T00:39:01.976Z,81.18
2022-09-21T00:41:32.830Z,81.04
2022-09-21T00:44:16.230Z,81.19
2022-09-21T00:46:45.834Z,81.66
2022-09-21T00:49:15.332Z,81.74
2022-09-21T00:51:44.591Z,81.84
2022-09-21T00:54:20.753Z,81.82
2022-09-21T00:56:48.967Z,81.65
2022-09-21T00:59:21.672Z,81.85
2022-09-21T01:01:51.516Z,81.83
2022-09-21T01:04:20.529Z,82.01
2022-09-21T01:06:50.496Z,82.23
2022-09-21T01:09:19.801Z,82.01
2022-09-21T01:12:15.315Z,81.46
2022-09-21T01:15:08.001Z,81.59
2022-09-21T01:17:46.742Z,81.71
2022-09-21T01:20:29.519Z,81.91
2022-09-21T01:23:09.637Z,81.99
2022-09-21T01:25:40.691Z,81.86
2022-09-21T01:28:46.369Z,81.69
2022-09-21T01:31:22.064Z,81.54
2022-09-21T01:33:55.809Z,81.44
2022-09-21T01:36:28.794Z,81.56
2022-09-21T01:39:05.865Z,81.58
2022-09-21T01:41:35.688Z,81.24
2022-09-21T01:44:08.758Z,81.45
2022-09-21T01:46:38.330Z,81.76
2022-09-21T01:49:13.174Z,81.63
2022-09-21T01:51:46.890Z,81.79
2022-09-21T01:54:22.617Z,81.99
2022-09-21T01:57:00.195Z,82.11
2022-09-21T01:59:51.137Z,82.69
2022-09-21T02:02:45.254Z,82.40
2022-09-21T02:05:16.582Z,82.76
2022-09-21T02:07:45.692Z,82.86
2022-09-21T02:10:21.230Z,82.40
2022-09-21T02:12:53.731Z,82.64
2022-09-21T02:15:29.034Z,82.62
2022-09-21T02:18:08.967Z,82.44
2022-09-21T02:20:49.278Z,82.43
2022-09-21T02:23:49.471Z,82.37
2022-09-21T02:26:26.785Z,82.36
2022-09-21T02:29:10.358Z,82.26
2022-09-21T02:31:59.491Z,82.37
2022-09-21T02:34:46.506Z,82.15
2022-09-21T02:37:24.349Z,81.77
2022-09-21T02:40:13.857Z,81.87
2022-09-21T02:42:45.370Z,81.69
2022-09-21T02:45:26.704Z,82.15
2022-09-21T02:48:04.793Z,82.24
2022-09-21T02:50:40.650Z,82.45
2022-09-21T02:53:11.610Z,82.73
2022-09-21T02:55:40.353Z,82.70
2022-09-21T02:58:13.145Z,82.54
2022-09-21T03:00:41.406Z,82.89
2022-09-21T03:03:18.532Z,83.24
2022-09-21T03:05:52.550Z,83.64
2022-09-21T03:08:21.082Z,83.60
2022-09-21T03:10:50.833Z,83.98
2022-09-21T03:13:19.047Z,83.63
2022-09-21T03:15:47.595Z,83.57
2022-09-21T03:18:16.132Z,83.73
2022-09-21T03:20:46.252Z,83.58
2022-09-21T03:23:14.781Z,83.45
2022-09-21T03:25:47.765Z,83.40
2022-09-21T03:28:16.642Z,82.98
2022-09-21T03:30:45.089Z,82.90
2022-09-21T03:33:13.827Z,82.87
2022-09-21T03:35:42.782Z,82.73
2022-09-21T03:38:11.993Z,82.79
2022-09-21T03:40:40.151Z,82.86
2022-09-21T03:43:08.331Z,82.95
2022-09-21T03:45:38.289Z,82.87
2022-09-21T03:48:06.874Z,82.79
2022-09-21T03:50:35.128Z,82.72
2022-09-21T03:53:03.822Z,82.40
2022-09-21T03:55:32.834Z,82.53
2022-09-21T03:58:01.136Z,82.56
2022-09-21T04:00:29.957Z,82.64
2022-09-21T04:02:58.273Z,82.79
2022-09-21T04:05:27.929Z,82.81
2022-09-21T04:07:56.918Z,82.54
2022-09-21T04:10:32.919Z,82.28
2022-09-21T04:13:02.277Z,82.16
2022-09-21T04:15:31.420Z,82.09
2022-09-21T04:17:59.750Z,82.04
2022-09-21T04:20:28.030Z,82.14
2022-09-21T04:22:58.103Z,82.21
2022-09-21T04:25:26.213Z,82.08
2022-09-21T04:27:54.538Z,82.03
2022-09-21T04:30:22.610Z,82.18
2022-09-21T04:32:50.766Z,81.99
2022-09-21T04:35:18.961Z,82.12
2022-09-21T04:37:47.094Z,83.00
2022-09-21T04:40:15.803Z,83.31
2022-09-21T04:42:44.000Z,82.54
2022-09-21T04:45:13.021Z,81.05
2022-09-21T04:47:41.208Z,79.16
2022-09-21T04:50:09.873Z,78.74
2022-09-21T04:52:38.037Z,76.97
2022-09-21T04:55:08.675Z,77.53
2022-09-21T05:00:38.933Z,75.30
2022-09-21T05:03:07.502Z,71.44
2022-09-21T05:05:37.532Z,70.61
2022-09-21T05:08:11.477Z,71.13
2022-09-21T05:10:42.033Z,67.67
2022-09-21T05:13:14.731Z,64.48
2022-09-21T05:15:48.557Z,63.49
2022-09-21T05:18:22.734Z,62.90
2022-09-21T05:20:59.323Z,63.58
2022-09-21T05:23:36.078Z,60.99
2022-09-21T05:26:13.781Z,61.00
2022-09-21T05:28:48.051Z,61.32
2022-09-21T05:31:19.532Z,59.11
2022-09-21T05:34:00.941Z,57.52
2022-09-21T05:36:40.674Z,56.31
2022-09-21T05:39:17.077Z,54.64
2022-09-21T05:46:56.673Z,52.72
2022-09-21T05:50:26.290Z,51.12
2022-09-21T05:54:17.919Z,48.17
2022-09-21T06:00:22.994Z,48.69
2022-09-21T06:17:53.136Z,46.14
2022-09-21T06:20:46.078Z,46.68
2022-09-21T06:23:25.519Z,47.46
2022-09-21T06:26:18.657Z,47.64
2022-09-21T06:28:58.823Z,47.50
2022-09-21T06:31:30.600Z,48.06
2022-09-21T06:34:05.554Z,48.83
2022-09-21T06:36:44.887Z,49.79
2022-09-21T06:39:14.999Z,49.58
2022-09-21T06:41:55.485Z,49.90
2022-09-21T06:44:27.457Z,50.08
2022-09-21T06:46:59.311Z,48.77
2022-09-21T06:49:54.121Z,49.54
2022-09-21T06:52:43.715Z,47.63
2022-09-21T06:55:16.332Z,46.95
2022-09-21T06:57:53.812Z,47.69
2022-09-21T07:00:31.263Z,47.32
2022-09-21T07:03:06.028Z,48.41
2022-09-21T07:05:40.154Z,48.53
2022-09-21T07:11:05.812Z,49.06
2022-09-21T07:13:40.883Z,48.49
2022-09-21T07:16:15.085Z,47.28
2022-09-21T07:19:10.025Z,47.20
2022-09-21T07:21:42.248Z,43.19
2022-09-21T07:25:34.832Z,42.45
2022-09-21T07:28:06.753Z,43.13
2022-09-21T07:30:42.302Z,43.39
2022-09-21T07:33:15.175Z,43.08
2022-09-21T07:35:58.067Z,43.28
2022-09-21T07:38:29.486Z,43.69
2022-09-21T07:41:03.405Z,44.42
2022-09-21T07:43:35.509Z,44.00
2022-09-21T07:46:09.708Z,44.26
2022-09-21T07:48:39.150Z,44.24
2022-09-21T07:51:11.540Z,43.99
2022-09-21T07:53:45.132Z,43.41
2022-09-21T07:56:20.549Z,43.00
2022-09-21T07:59:15.383Z,43.16
2022-09-21T08:01:53.151Z,39.74
2022-09-21T08:04:36.080Z,38.91
2022-09-21T08:07:28.555Z,38.22
2022-09-21T08:40:54.923Z,31.84
2022-09-21T08:43:45.280Z,33.28
2022-09-21T08:46:26.369Z,34.00
2022-09-21T08:52:25.877Z,31.48
2022-09-21T08:58:28.846Z,32.33
2022-09-21T09:01:20.296Z,33.76
2022-09-21T09:04:31.658Z,34.47
2022-09-21T09:07:55.848Z,33.92
2022-09-21T09:11:33.799Z,32.86
2022-09-21T09:14:45.250Z,35.92
2022-09-21T09:18:23.835Z,38.74
2022-09-21T09:21:30.146Z,41.96
2022-09-21T09:24:39.914Z,43.64
2022-09-21T09:27:39.526Z,45.87
2022-09-21T09:30:32.664Z,46.99
2022-09-21T09:33:26.513Z,48.90
2022-09-21T09:36:12.206Z,47.14
2022-09-21T09:42:19.626Z,40.44
2022-09-21T09:45:37.723Z,38.16
2022-09-21T09:48:26.335Z,36.11
2022-09-21T09:54:41.466Z,35.61
2022-09-21T09:57:23.952Z,36.76
2022-09-21T10:00:14.560Z,38.14
2022-09-21T10:03:01.808Z,40.13
2022-09-21T10:05:50.292Z,39.39
2022-09-21T10:08:48.204Z,37.08
2022-09-21T10:11:52.636Z,34.36
2022-09-21T10:14:40.969Z,32.40
2022-09-21T10:17:29.210Z,31.50
2022-09-21T10:20:01.426Z,31.01
2022-09-21T10:22:41.663Z,32.09
2022-09-21T10:25:21.316Z,31.75
2022-09-21T10:28:00.115Z,30.76
2022-09-21T10:30:52.031Z,30.23
2022-09-21T10:33:25.493Z,31.01
2022-09-21T10:36:00.167Z,30.74
2022-09-21T10:38:37.300Z,31.40
2022-09-21T10:41:07.093Z,31.78
2022-09-21T10:43:48.736Z,30.05
2022-09-21T10:46:41.511Z,28.60
2022-09-21T10:49:26.576Z,28.65
2022-09-21T10:51:59.700Z,31.54
2022-09-21T10:54:32.884Z,32.80
2022-09-21T10:57:07.169Z,33.12
2022-09-21T10:59:40.080Z,33.81
2022-09-21T11:02:35.589Z,31.96
2022-09-21T11:05:23.834Z,30.72
2022-09-21T11:08:20.029Z,30.89
2022-09-21T11:11:35.820Z,33.21
2022-09-21T11:14:14.921Z,34.30
2022-09-21T11:16:52.715Z,35.08
2022-09-21T11:19:46.683Z,35.30
2022-09-21T11:22:35.850Z,36.11
2022-09-21T11:25:35.744Z,37.38
2022-09-21T11:28:30.342Z,38.16
2022-09-21T11:31:30.126Z,39.27
2022-09-21T11:34:16.701Z,40.40
2022-09-21T11:37:22.497Z,41.31
2022-09-21T11:40:22.327Z,42.07
2022-09-21T11:43:07.256Z,43.48
2022-09-21T11:46:16.017Z,43.91
2022-09-21T11:49:03.122Z,45.05
2022-09-21T11:51:50.777Z,46.04
2022-09-21T11:54:39.734Z,45.74
2022-09-21T11:57:19.201Z,45.72
2022-09-21T12:00:18.037Z,47.83
2022-09-21T12:03:18.951Z,48.27
2022-09-21T12:06:05.706Z,46.35
2022-09-21T12:08:59.961Z,46.29
2022-09-21T12:11:44.069Z,46.46
2022-09-21T12:14:20.105Z,47.44
2022-09-21T12:16:48.259Z,48.38
2022-09-21T12:19:43.619Z,48.63
2022-09-21T12:22:18.646Z,49.29
2022-09-21T12:24:52.607Z,50.36
2022-09-21T12:27:30.715Z,50.36
2022-09-21T12:30:08.446Z,49.29
2022-09-21T12:32:49.790Z,49.27
2022-09-21T12:36:03.209Z,49.00
2022-09-21T12:38:43.019Z,50.04
2022-09-21T12:41:39.973Z,51.10
2022-09-21T12:44:27.077Z,50.41
2022-09-21T12:47:09.667Z,49.74
2022-09-21T12:49:50.899Z,48.84
2022-09-21T12:52:26.423Z,48.70
2022-09-21T12:55:02.191Z,48.49
2022-09-21T12:58:14.569Z,48.91
2022-09-21T13:01:11.392Z,50.05
2022-09-21T13:03:49.402Z,51.41
2022-09-21T13:06:57.090Z,52.09
2022-09-21T13:09:27.261Z,52.39
2022-09-21T13:12:19.920Z,51.78
2022-09-21T13:15:03.294Z,52.49
2022-09-21T13:17:35.908Z,52.12
2022-09-21T13:20:23.029Z,52.96
2022-09-21T13:23:03.432Z,52.82
2022-09-21T13:25:37.997Z,53.19
2022-09-21T13:28:19.998Z,53.50
2022-09-21T13:31:40.392Z,53.24
2022-09-21T13:34:26.096Z,53.48
2022-09-21T13:37:11.440Z,53.58
2022-09-21T13:40:02.136Z,53.40
2022-09-21T13:42:31.171Z,52.89
2022-09-21T13:45:19.402Z,53.12
2022-09-21T13:48:00.204Z,53.19
2022-09-21T13:50:44.886Z,53.46
2022-09-21T13:53:19.723Z,53.76
2022-09-21T13:55:54.025Z,53.57
2022-09-21T13:58:32.932Z,53.40
2022-09-21T14:01:35.531Z,52.73
2022-09-21T14:04:15.693Z,52.67
2022-09-21T14:06:48.437Z,52.26
2022-09-21T14:09:43.795Z,51.84
2022-09-21T14:12:21.808Z,52.40
2022-09-21T14:15:13.370Z,52.84
2022-09-21T14:17:44.190Z,54.09
2022-09-21T14:20:34.617Z,54.01
2022-09-21T14:23:28.960Z,53.86
2022-09-21T14:26:02.310Z,52.87
2022-09-21T14:28:39.911Z,53.05
2022-09-21T14:31:18.665Z,52.49
2022-09-21T14:33:59.789Z,53.35
2022-09-21T14:36:44.078Z,53.32
2022-09-21T14:39:21.969Z,53.63
2022-09-21T14:41:54.920Z,54.16
2022-09-21T14:44:34.146Z,54.38
2022-09-21T14:47:36.267Z,54.83
2022-09-21T14:50:15.366Z,55.12
2022-09-21T14:52:58.703Z,56.02
2022-09-21T14:56:04.427Z,55.98
2022-09-21T14:58:46.913Z,56.52
2022-09-21T15:01:25.414Z,56.93
2022-09-21T15:04:16.844Z,57.28
2022-09-21T15:07:26.342Z,56.97
2022-09-21T15:10:35.434Z,58.55
2022-09-21T15:13:20.470Z,58.93
2022-09-21T15:16:11.438Z,59.59
2022-09-21T15:18:44.336Z,59.62
2022-09-21T15:21:30.611Z,60.16
2022-09-21T15:24:01.818Z,60.27
2022-09-21T15:26:34.519Z,60.26
2022-09-21T15:29:18.353Z,60.75
2022-09-21T15:31:48.958Z,61.02
2022-09-21T15:34:17.247Z,60.84
2022-09-21T15:36:52.171Z,60.90
2022-09-21T15:39:31.892Z,61.07
2022-09-21T15:42:09.107Z,61.44
2022-09-21T15:44:39.602Z,61.48
2022-09-21T15:47:09.609Z,62.28
2022-09-21T15:49:41.968Z,62.34
2022-09-21T15:52:23.421Z,62.67
2022-09-21T15:54:57.244Z,62.95
2022-09-21T15:57:38.807Z,63.69
2022-09-21T16:00:19.778Z,64.22
2022-09-21T16:03:20.191Z,64.68
2022-09-21T16:05:51.430Z,64.90
2022-09-21T16:08:37.284Z,64.76
2022-09-21T16:11:33.254Z,64.93
2022-09-21T16:14:32.890Z,65.27
2022-09-21T16:17:12.990Z,65.45
2022-09-21T16:19:45.205Z,65.51
2022-09-21T16:22:19.955Z,65.86
2022-09-21T16:24:55.369Z,66.38
2022-09-21T16:27:29.074Z,67.12
2022-09-21T16:30:00.339Z,67.25
2022-09-21T16:32:35.905Z,67.19
2022-09-21T16:35:29.479Z,67.20
2022-09-21T16:38:01.567Z,67.05
2022-09-21T16:40:30.158Z,67.11
2022-09-21T16:42:58.985Z,67.04
2022-09-21T16:45:31.413Z,66.80
2022-09-21T16:47:59.899Z,66.70
2022-09-21T16:50:28.080Z,67.37
2022-09-21T16:52:56.265Z,69.02
2022-09-21T16:55:28.944Z,70.95
2022-09-21T16:57:57.916Z,71.61
2022-09-21T17:00:29.395Z,71.62
2022-09-21T17:02:57.692Z,71.97
2022-09-21T17:05:26.262Z,72.33
2022-09-21T17:07:57.799Z,72.60
2022-09-21T17:10:32.247Z,72.41
2022-09-21T17:13:00.327Z,72.56
2022-09-21T17:15:32.588Z,73.24
2022-09-21T17:18:00.848Z,73.63
2022-09-21T17:20:35.783Z,73.55
2022-09-21T17:23:04.845Z,73.37
2022-09-21T17:25:35.130Z,73.19
2022-09-21T17:28:12.580Z,73.22
2022-09-21T17:30:42.668Z,73.77
2022-09-21T17:33:11.175Z,73.67
2022-09-21T17:35:41.721Z,73.72
2022-09-21T17:38:14.166Z,74.11
2022-09-21T17:40:43.367Z,74.15
2022-09-21T17:43:14.574Z,74.30
2022-09-21T17:45:50.575Z,74.39
2022-09-21T17:48:21.420Z,74.24
2022-09-21T17:50:50.537Z,74.49
2022-09-21T17:53:34.778Z,74.65
2022-09-21T17:56:18.153Z,74.26
2022-09-21T17:58:52.044Z,74.67
2022-09-21T18:01:35.188Z,74.68
2022-09-21T18:04:04.987Z,74.69
2022-09-21T18:06:34.319Z,74.72
2022-09-21T18:09:03.620Z,75.53
2022-09-21T18:11:45.774Z,76.26
2022-09-21T18:14:44.792Z,77.62
2022-09-21T18:17:51.484Z,78.97
2022-09-21T18:20:57.105Z,79.34
2022-09-21T18:23:43.613Z,80.14
2022-09-21T18:26:16.518Z,80.39
2022-09-21T18:28:58.172Z,80.55
2022-09-21T18:31:54.151Z,80.61
2022-09-21T18:34:44.162Z,80.95
2022-09-21T18:37:47.490Z,81.48
2022-09-21T18:40:41.278Z,81.80
2022-09-21T18:43:40.499Z,82.15
2022-09-21T18:46:17.085Z,82.35
2022-09-21T18:48:56.494Z,82.58
2022-09-21T18:51:57.683Z,82.16
2022-09-21T18:54:28.096Z,81.98
2022-09-21T18:56:56.710Z,81.54
2022-09-21T18:59:29.608Z,81.32
2022-09-21T19:02:00.159Z,81.77
2022-09-21T19:04:29.296Z,81.77
2022-09-21T19:07:10.841Z,81.49
2022-09-21T19:09:52.226Z,81.41
2022-09-21T19:12:28.445Z,81.14
2022-09-21T19:15:42.303Z,81.25
2022-09-21T19:18:35.967Z,81.40
2022-09-21T19:21:28.482Z,81.33
2022-09-21T19:24:12.028Z,81.07
2022-09-21T19:27:04.756Z,80.93
2022-09-21T19:29:47.259Z,81.01
2022-09-21T19:32:18.537Z,81.16
2022-09-21T19:34:47.432Z,81.18
2022-09-21T19:37:15.602Z,81.16
2022-09-21T19:39:44.007Z,81.02
2022-09-21T19:42:32.779Z,80.98
2022-09-21T19:45:31.056Z,80.89
2022-09-21T19:48:05.099Z,81.06
2022-09-21T19:50:48.874Z,81.05
2022-09-21T19:53:35.935Z,80.89
2022-09-21T19:56:29.417Z,80.86
2022-09-21T19:59:16.787Z,80.53
2022-09-21T20:02:05.938Z,80.78
2022-09-21T20:05:01.755Z,81.00
2022-09-21T20:07:45.771Z,81.18
2022-09-21T20:10:24.711Z,81.59
2022-09-21T20:13:01.767Z,81.05
2022-09-21T20:16:03.939Z,80.85
2022-09-21T20:18:40.026Z,81.18
2022-09-21T20:21:15.554Z,80.97
2022-09-21T20:23:45.242Z,80.81
2022-09-21T20:26:27.300Z,80.75
2022-09-21T20:28:55.623Z,80.42
2022-09-21T20:31:25.945Z,80.24
2022-09-21T20:33:54.124Z,80.70
2022-09-21T20:36:23.001Z,80.61
2022-09-21T20:38:51.136Z,80.80
2022-09-21T20:41:20.350Z,80.90
2022-09-21T20:43:48.416Z,80.78
2022-09-21T20:46:17.156Z,80.84
2022-09-21T20:48:45.308Z,80.65
2022-09-21T20:51:13.411Z,80.79
2022-09-21T20:53:41.522Z,80.38
2022-09-21T20:56:09.676Z,80.29
2022-09-21T20:58:37.970Z,80.26
2022-09-21T21:01:07.527Z,80.26
2022-09-21T21:03:37.195Z,80.39
2022-09-21T21:06:08.458Z,80.51
2022-09-21T21:08:36.513Z,80.84
2022-09-21T21:11:04.752Z,81.02
2022-09-21T21:13:33.733Z,81.44
2022-09-21T21:16:07.068Z,81.66
2022-09-21T21:18:42.804Z,81.49
2022-09-21T21:21:11.730Z,81.40
2022-09-21T21:24:02.859Z,81.43
2022-09-21T21:26:57.320Z,81.40
2022-09-21T21:29:19.686Z,81.55
2022-09-21T21:31:48.938Z,81.47
2022-09-21T21:34:17.297Z,81.45
2022-09-21T21:36:45.670Z,81.54
2022-09-21T21:39:13.821Z,81.20
2022-09-21T21:41:43.422Z,81.20
2022-09-21T21:44:11.833Z,81.12
2022-09-21T21:46:39.935Z,81.21
2022-09-21T21:49:08.019Z,81.37
2022-09-21T21:51:36.178Z,81.42
2022-09-21T21:54:04.449Z,81.45
2022-09-21T21:56:32.617Z,81.51
2022-09-21T21:59:00.852Z,81.62
2022-09-21T22:01:30.229Z,81.57
2022-09-21T22:04:01.464Z,81.70
2022-09-21T22:06:31.502Z,81.85
2022-09-21T22:09:00.452Z,81.55
2022-09-21T22:11:29.301Z,81.64
2022-09-21T22:13:58.885Z,81.75
2022-09-21T22:16:29.532Z,81.66
2022-09-21T22:18:58.693Z,81.66
2022-09-21T22:21:32.492Z,81.84
2022-09-21T22:24:04.393Z,81.84
2022-09-21T22:26:37.008Z,81.70
2022-09-21T22:29:06.973Z,81.56
2022-09-21T22:31:41.170Z,81.47
2022-09-21T22:34:09.631Z,81.29
2022-09-21T22:36:39.135Z,81.63
2022-09-21T22:39:08.409Z,81.58
2022-09-21T22:41:41.426Z,81.52
2022-09-21T22:44:10.788Z,81.49
2022-09-21T22:46:39.766Z,81.45
2022-09-21T22:49:08.310Z,81.36
2022-09-21T22:51:36.513Z,81.28
2022-09-21T22:54:04.856Z,81.34
2022-09-21T22:56:33.700Z,81.34
2022-09-21T22:59:04.286Z,81.31
2022-09-21T23:01:36.417Z,81.18
2022-09-21T23:04:13.270Z,81.47
2022-09-21T23:06:44.944Z,81.12
2022-09-21T23:09:17.076Z,81.18
2022-09-21T23:11:53.662Z,81.31
2022-09-21T23:14:23.387Z,81.28
2022-09-21T23:16:51.630Z,81.17
2022-09-21T23:19:19.850Z,81.50
2022-09-21T23:21:50.221Z,81.53
2022-09-21T23:24:19.507Z,81.47
2022-09-21T23:26:50.620Z,81.49
2022-09-21T23:29:19.103Z,81.70
2022-09-21T23:31:47.300Z,82.00
2022-09-21T23:34:16.239Z,81.99
2022-09-21T23:36:45.643Z,81.80
2022-09-21T23:39:15.688Z,81.78
2022-09-21T23:41:44.534Z,81.71
2022-09-21T23:44:12.694Z,81.51
2022-09-21T23:46:42.249Z,81.66
2022-09-21T23:49:10.649Z,81.64
2022-09-21T23:51:39.962Z,81.69
2022-09-21T23:54:08.101Z,81.84
2022-09-21T23:56:36.515Z,81.95
2022-09-21T23:59:05.676Z,82.21
